Pagrindinis puslapis
METAR-TAF:

METAR-TAF

Oro uostai :

Såtenäs, Švedija

platuma: 58-26N, ilguma: 012-42E, Aukštis: 54 m

Dabartinis oras

Ataskaita buvo paskelbta 28 minutes, ne 08:20 UTC
Vėjas 8 kt iš Pietų/Pietvakarių, svyruoja nuo Pietų ir Vakarų/Pietvakarių
Temperatūra 13°C
Drėgmė 77%
Slėgis 1012 hPa
Matomumas 10 km arba daugiau

METAR: ESIB 140820Z AUTO 21008KT 180V240 9999 SCT019/// BKN100/// 13/09 Q1012

Laikas: 10:48 (08:48 UTC)

Prognozė

Ataskaita buvo paskelbta 18 minutes, ne 08:30 UTC
Prognozė galioja nuo 14 metu 09 UTC su 14 metu 18 UTC
Vėjas 6 kt iš Pietų
Matomumas 10 km arba daugiau
Išsisklaidę debesys ne aukštis 3000 ft
Laikinai
nuo 14 metu 09 UTC su 14 metu 11 UTC
Matomumas: 8000 m
Su prošvaistėmis ne aukštis 2000 ft, aukštai iškilę kamuoliniai debesys.
lietus
Tikimybė 30% :
Laikinai
nuo 14 metu 11 UTC su 14 metu 18 UTC
Matomumas: 5000 m
Su prošvaistėmis ne aukštis 2000 ft, Liūtiniai kamuoliniai debesys.
lietus

TAF: ESIB 140830Z 1409/1418 17006KT 9999 SCT030 TEMPO 1409/1411 8000 SHRA BKN020TCU PROB30 TEMPO 1411/1418 5000 SHRA BKN020CB RMK MIL

Orai ataskaitas ir orų prognozės (METAR, TAF).

turimą stotys yra geltonos ir raudonos taškus žemėlapyje.

Perkelti pele per norėdami pamatyti stoties vardą.

Tada spustelėkite, norėdami matyti oro stebėjimo ir prognozės.

Norėdami pakeisti žemėlapį: spustelėkite ant žalios mygtukų su juodo kryžiaus žemyn,; žalią mygtuką su brūkšneliu, jei norite nutolinti; arba žalių rodyklių gretimoms žemėlapius.


METAR-TAF: